createdAt,value
2018-01-21T00:00:56.627Z,14.27
2018-01-21T00:03:24.087Z,14.65
2018-01-21T00:05:51.573Z,16.20
2018-01-21T00:08:19.809Z,15.35
2018-01-21T00:10:47.380Z,13.90
2018-01-21T00:13:14.841Z,15.88
2018-01-21T00:15:42.401Z,14.35
2018-01-21T00:18:09.887Z,16.10
2018-01-21T00:20:37.369Z,14.45
2018-01-21T00:23:04.827Z,15.32
2018-01-21T00:25:32.383Z,15.55
2018-01-21T00:27:59.853Z,14.45
2018-01-21T00:30:27.332Z,14.02
2018-01-21T00:32:54.860Z,15.30
2018-01-21T00:35:22.350Z,13.75
2018-01-21T00:37:49.921Z,13.27
2018-01-21T00:40:17.477Z,16.20
2018-01-21T00:42:44.971Z,14.65
2018-01-21T00:45:12.441Z,15.20
2018-01-21T00:47:39.942Z,15.00
2018-01-21T00:50:08.929Z,15.25
2018-01-21T00:52:36.396Z,15.05
2018-01-21T00:55:03.948Z,14.85
2018-01-21T00:57:31.419Z,15.15
2018-01-21T00:59:59.691Z,14.87
2018-01-21T01:02:27.251Z,18.35
2018-01-21T01:04:54.721Z,15.05
2018-01-21T01:07:22.964Z,15.60
2018-01-21T01:09:50.429Z,15.88
2018-01-21T01:12:19.416Z,15.65
2018-01-21T01:14:46.873Z,16.33
2018-01-21T01:17:14.430Z,16.25
2018-01-21T01:19:41.907Z,15.93
2018-01-21T01:22:10.876Z,17.30
2018-01-21T01:24:38.341Z,15.32
2018-01-21T01:27:05.907Z,15.57
2018-01-21T01:29:33.374Z,16.58
2018-01-21T01:32:01.642Z,16.15
2018-01-21T01:34:29.112Z,15.88
2018-01-21T01:36:57.364Z,17.08
2018-01-21T01:39:24.928Z,16.65
2018-01-21T01:41:52.387Z,17.23
2018-01-21T01:44:19.863Z,17.77
2018-01-21T01:46:48.105Z,19.10
2018-01-21T01:49:15.627Z,21.37
2018-01-21T01:51:43.189Z,22.40
2018-01-21T01:54:10.658Z,21.52
2018-01-21T01:56:38.123Z,20.52
2018-01-21T01:59:05.704Z,22.08
2018-01-21T02:01:33.274Z,21.37
2018-01-21T02:04:00.775Z,21.65
2018-01-21T02:06:28.248Z,19.77
2018-01-21T02:08:55.725Z,20.00
2018-01-21T02:11:23.292Z,21.08
2018-01-21T02:13:50.848Z,18.87
2018-01-21T02:16:18.403Z,22.58
2018-01-21T02:18:45.856Z,18.85
2018-01-21T02:21:13.332Z,20.10
2018-01-21T02:23:40.876Z,18.45
2018-01-21T02:26:08.344Z,17.92
2018-01-21T02:28:35.807Z,19.12
2018-01-21T02:31:03.348Z,18.85
2018-01-21T02:33:30.908Z,17.95
2018-01-21T02:35:58.416Z,17.83
2018-01-21T02:38:25.844Z,17.77
2018-01-21T02:40:54.104Z,16.75
2018-01-21T02:43:21.569Z,16.20
2018-01-21T02:45:49.120Z,17.15
2018-01-21T02:48:16.585Z,14.77
2018-01-21T02:50:44.053Z,15.00
2018-01-21T02:53:12.314Z,17.20
2018-01-21T02:55:39.768Z,15.23
2018-01-21T02:58:07.316Z,14.93
2018-01-21T03:00:34.783Z,15.68
2018-01-21T03:03:02.336Z,15.98
2018-01-21T03:05:29.805Z,14.02
2018-01-21T03:07:57.267Z,15.98
2018-01-21T03:10:25.533Z,14.57
2018-01-21T03:12:52.992Z,15.55
2018-01-21T03:15:20.458Z,15.48
2018-01-21T03:17:48.772Z,16.35
2018-01-21T03:20:16.231Z,15.82
2018-01-21T03:22:43.700Z,15.15
2018-01-21T03:25:11.181Z,15.80
2018-01-21T03:27:38.634Z,15.10
2018-01-21T03:30:06.098Z,15.18
2018-01-21T03:32:33.661Z,15.32
2018-01-21T03:35:01.217Z,16.35
2018-01-21T03:37:28.691Z,15.93
2018-01-21T03:39:56.944Z,15.48
2018-01-21T03:42:24.403Z,13.75
2018-01-21T03:44:51.868Z,14.70
2018-01-21T03:47:19.319Z,14.30
2018-01-21T03:49:46.793Z,14.38
2018-01-21T03:52:15.053Z,13.13
2018-01-21T03:54:42.769Z,15.15
2018-01-21T03:57:10.241Z,14.75
2018-01-21T03:59:37.728Z,14.07
2018-01-21T04:02:05.190Z,14.27
2018-01-21T04:04:33.428Z,15.35
2018-01-21T04:07:00.900Z,15.23
2018-01-21T04:09:28.371Z,14.45
2018-01-21T04:11:55.834Z,15.63
2018-01-21T04:14:23.385Z,16.92
2018-01-21T04:16:50.940Z,17.42
2018-01-21T04:19:18.399Z,18.58
2018-01-21T04:21:46.673Z,17.35
2018-01-21T04:24:14.132Z,18.70
2018-01-21T04:26:41.596Z,19.87
2018-01-21T04:29:09.153Z,20.12
2018-01-21T04:31:36.708Z,19.60
2018-01-21T04:34:04.267Z,19.02
2018-01-21T04:36:31.822Z,18.60
2018-01-21T04:38:59.401Z,15.55
2018-01-21T04:41:26.940Z,20.02
2018-01-21T04:43:54.500Z,18.70
2018-01-21T04:46:22.061Z,19.17
2018-01-21T04:48:49.516Z,18.45
2018-01-21T04:51:17.792Z,17.85
2018-01-21T04:53:45.250Z,15.82
2018-01-21T04:56:12.703Z,16.30
2018-01-21T04:58:40.168Z,18.58
2018-01-21T05:01:07.638Z,19.12
2018-01-21T05:03:35.893Z,18.05
2018-01-21T05:06:03.451Z,19.15
2018-01-21T05:08:30.911Z,19.58
2018-01-21T05:10:58.376Z,20.25
2018-01-21T05:13:25.836Z,19.62
2018-01-21T05:15:53.299Z,19.45
2018-01-21T05:18:21.568Z,19.40
2018-01-21T05:20:49.809Z,18.75
2018-01-21T05:23:17.289Z,17.48
2018-01-21T05:25:44.753Z,17.85
2018-01-21T05:28:12.305Z,16.73
2018-01-21T05:30:39.770Z,18.90
2018-01-21T05:33:07.325Z,16.52
2018-01-21T05:35:34.877Z,18.25
2018-01-21T05:38:03.116Z,18.20
2018-01-21T05:40:30.665Z,18.17
2018-01-21T05:42:58.176Z,16.05
2018-01-21T05:45:25.643Z,15.98
2018-01-21T05:47:53.880Z,16.20
2018-01-21T05:50:21.356Z,16.73
2018-01-21T05:52:48.916Z,16.50
2018-01-21T05:55:16.389Z,18.02
2018-01-21T05:57:44.627Z,17.50
2018-01-21T06:00:12.131Z,16.98
2018-01-21T06:02:40.379Z,16.50
2018-01-21T06:05:07.929Z,18.45
2018-01-21T06:07:35.449Z,18.73
2018-01-21T06:10:03.008Z,18.30
2018-01-21T06:12:30.515Z,17.60
2018-01-21T06:14:58.065Z,16.92
2018-01-21T06:17:25.631Z,17.80
2018-01-21T06:19:53.075Z,17.30
2018-01-21T06:22:21.319Z,18.92
2018-01-21T06:24:48.799Z,16.52
2018-01-21T06:27:16.273Z,16.83
2018-01-21T06:29:43.836Z,16.05
2018-01-21T06:32:11.292Z,18.15
2018-01-21T06:34:38.774Z,17.33
2018-01-21T06:37:07.029Z,17.10
2018-01-21T06:39:34.584Z,16.65
2018-01-21T06:42:02.839Z,16.90
2018-01-21T06:44:30.327Z,16.90
2018-01-21T06:46:57.873Z,16.75
2018-01-21T06:49:25.355Z,18.75
2018-01-21T06:51:54.071Z,18.42
2018-01-21T06:54:22.862Z,17.90
2018-01-21T06:57:05.881Z,16.75
2018-01-21T06:59:33.855Z,16.27
2018-01-21T07:02:08.380Z,17.02
2018-01-21T07:04:37.054Z,15.15
2018-01-21T07:07:05.050Z,16.00
2018-01-21T07:09:32.792Z,15.68
2018-01-21T07:12:00.283Z,17.15
2018-01-21T07:14:27.753Z,17.92
2018-01-21T07:16:55.982Z,18.27
2018-01-21T07:19:23.448Z,15.82
2018-01-21T07:21:50.940Z,17.85
2018-01-21T07:24:18.887Z,17.73
2018-01-21T07:26:46.336Z,19.02
2018-01-21T07:29:13.801Z,17.33
2018-01-21T07:31:41.263Z,19.12
2018-01-21T07:34:08.732Z,16.62
2018-01-21T07:36:36.225Z,17.00
2018-01-21T07:39:04.468Z,15.65
2018-01-21T07:41:32.012Z,18.33
2018-01-21T07:43:59.489Z,17.92
2018-01-21T07:46:27.760Z,16.08
2018-01-21T07:48:55.218Z,17.67
2018-01-21T07:51:24.206Z,19.02
2018-01-21T07:53:51.779Z,16.33
2018-01-21T07:56:20.092Z,18.20
2018-01-21T07:58:47.552Z,18.27
2018-01-21T08:01:15.039Z,20.80
2018-01-21T08:03:42.512Z,18.70
2018-01-21T08:06:11.484Z,19.80
2018-01-21T08:08:38.960Z,17.70
2018-01-21T08:11:06.442Z,16.77
2018-01-21T08:13:33.928Z,16.90
2018-01-21T08:16:01.421Z,17.58
2018-01-21T08:18:28.894Z,17.52
2018-01-21T08:20:56.352Z,17.90
2018-01-21T08:23:23.825Z,17.10
2018-01-21T08:25:52.060Z,15.40
2018-01-21T08:28:19.630Z,18.52
2018-01-21T08:30:47.093Z,15.23
2018-01-21T08:33:14.644Z,17.02
2018-01-21T08:35:47.801Z,17.52
2018-01-21T08:38:21.026Z,15.95
2018-01-21T08:40:54.125Z,17.48
2018-01-21T08:43:21.584Z,15.57
2018-01-21T08:45:49.827Z,16.95
2018-01-21T08:48:17.299Z,16.75
2018-01-21T08:50:44.859Z,16.45
2018-01-21T08:53:12.422Z,17.45
2018-01-21T08:55:39.888Z,17.73
2018-01-21T08:58:07.347Z,18.30
2018-01-21T09:00:34.810Z,18.15
2018-01-21T09:03:03.048Z,19.20
2018-01-21T09:05:30.515Z,18.50
2018-01-21T09:07:58.102Z,17.05
2018-01-21T09:10:26.352Z,18.12
2018-01-21T09:12:53.816Z,17.10
2018-01-21T09:15:21.279Z,15.57
2018-01-21T09:17:49.544Z,15.98
2018-01-21T09:20:17.014Z,14.93
2018-01-21T09:22:44.572Z,19.50
2018-01-21T09:25:12.132Z,17.40
2018-01-21T09:27:39.692Z,17.33
2018-01-21T09:30:07.150Z,19.12
2018-01-21T09:32:35.394Z,17.20
2018-01-21T09:35:02.892Z,18.37
2018-01-21T09:37:31.133Z,19.12
2018-01-21T09:39:58.604Z,17.60
2018-01-21T09:42:26.300Z,16.98
2018-01-21T09:44:54.653Z,18.17
2018-01-21T09:47:22.201Z,17.67
2018-01-21T09:49:49.717Z,17.58
2018-01-21T09:52:17.180Z,17.65
2018-01-21T09:54:44.632Z,18.85
2018-01-21T09:57:12.114Z,17.62
2018-01-21T09:59:39.577Z,17.52
2018-01-21T10:02:07.143Z,18.60
2018-01-21T10:04:34.607Z,20.05
2018-01-21T10:07:02.164Z,16.05
2018-01-21T10:09:29.621Z,18.80
2018-01-21T10:11:57.175Z,17.98
2018-01-21T10:14:24.640Z,19.12
2018-01-21T10:16:52.129Z,18.67
2018-01-21T10:19:19.612Z,17.55
2018-01-21T10:21:47.084Z,19.25
2018-01-21T10:24:14.661Z,18.90
2018-01-21T10:26:42.225Z,19.62
2018-01-21T10:29:09.702Z,17.90
2018-01-21T10:31:37.960Z,19.50
2018-01-21T10:34:05.425Z,18.92
2018-01-21T10:36:33.689Z,17.42
2018-01-21T10:39:01.161Z,18.50
2018-01-21T10:41:29.429Z,19.90
2018-01-21T10:43:56.883Z,20.12
2018-01-21T10:46:24.429Z,18.60
2018-01-21T10:48:51.920Z,17.10
2018-01-21T10:51:19.389Z,19.02
2018-01-21T10:53:46.943Z,17.58
2018-01-21T10:56:14.402Z,19.27
2018-01-21T10:58:41.913Z,18.70
2018-01-21T11:01:09.399Z,19.17
2018-01-21T11:03:36.948Z,18.02
2018-01-21T11:06:04.509Z,20.15
2018-01-21T11:08:32.732Z,21.17
2018-01-21T11:11:00.207Z,19.02
2018-01-21T11:13:27.686Z,20.88
2018-01-21T11:15:55.232Z,21.45
2018-01-21T11:18:22.787Z,20.25
2018-01-21T11:20:50.272Z,20.88
2018-01-21T11:23:18.509Z,20.83
2018-01-21T11:25:45.959Z,20.62
2018-01-21T11:28:13.416Z,20.30
2018-01-21T11:30:40.909Z,19.50
2018-01-21T11:33:08.455Z,21.37
2018-01-21T11:35:35.920Z,19.23
2018-01-21T11:38:03.393Z,21.05
2018-01-21T11:40:31.645Z,20.75
2018-01-21T11:42:59.111Z,22.08
2018-01-21T11:45:26.668Z,17.65
2018-01-21T11:47:54.222Z,22.67
2018-01-21T11:50:21.780Z,20.98
2018-01-21T11:52:49.257Z,21.12
2018-01-21T11:55:17.533Z,19.73
2018-01-21T11:57:45.756Z,20.58
2018-01-21T12:00:13.220Z,19.75
2018-01-21T12:02:40.684Z,21.90
2018-01-21T12:05:08.148Z,22.55
2018-01-21T12:07:35.716Z,21.77
2018-01-21T12:10:03.966Z,23.35
2018-01-21T12:12:32.268Z,22.83
2018-01-21T12:14:59.829Z,22.17
2018-01-21T12:17:27.321Z,24.40
2018-01-21T12:19:54.785Z,22.87
2018-01-21T12:22:22.258Z,25.05
2018-01-21T12:24:49.752Z,22.10
2018-01-21T12:27:17.223Z,25.00
2018-01-21T12:29:45.456Z,24.23
2018-01-21T12:32:12.928Z,23.55
2018-01-21T12:34:40.399Z,22.87
2018-01-21T12:37:07.857Z,20.62
2018-01-21T12:39:35.324Z,21.00
2018-01-21T12:42:03.565Z,22.13
2018-01-21T12:44:31.051Z,22.83
2018-01-21T12:46:58.520Z,21.23
2018-01-21T12:49:26.752Z,20.20
2018-01-21T12:51:54.229Z,20.92
2018-01-21T12:54:21.741Z,23.75
2018-01-21T12:56:49.214Z,21.90
2018-01-21T12:59:16.749Z,19.37
2018-01-21T13:01:44.273Z,20.20
2018-01-21T13:04:11.741Z,19.73
2018-01-21T13:06:39.984Z,19.77
2018-01-21T13:09:07.481Z,21.45
2018-01-21T13:11:35.709Z,19.62
2018-01-21T13:14:03.179Z,18.90
2018-01-21T13:16:30.669Z,18.60
2018-01-21T13:18:58.916Z,19.92
2018-01-21T13:21:26.426Z,20.55
2018-01-21T13:23:53.884Z,21.58
2018-01-21T13:26:21.368Z,21.12
2018-01-21T13:28:48.820Z,20.60
2018-01-21T13:31:16.300Z,17.92
2018-01-21T13:33:43.859Z,20.20
2018-01-21T13:36:11.423Z,17.58
2018-01-21T13:38:38.880Z,19.98
2018-01-21T13:41:06.356Z,20.90
2018-01-21T13:43:34.583Z,18.87
2018-01-21T13:46:02.118Z,19.02
2018-01-21T13:48:29.588Z,19.10
2018-01-21T13:50:57.080Z,18.75
2018-01-21T13:53:24.565Z,18.62
2018-01-21T13:55:52.793Z,19.45
2018-01-21T13:58:20.374Z,20.77
2018-01-21T14:00:47.870Z,22.15
2018-01-21T14:03:15.341Z,19.90
2018-01-21T14:05:42.848Z,20.70
2018-01-21T14:08:10.332Z,19.45
2018-01-21T14:10:38.568Z,19.45
2018-01-21T14:13:06.048Z,19.55
2018-01-21T14:15:34.297Z,20.25
2018-01-21T14:18:01.768Z,17.52
2018-01-21T14:20:29.328Z,17.17
2018-01-21T14:22:58.306Z,18.98
2018-01-21T14:25:25.876Z,17.20
2018-01-21T14:27:53.357Z,18.15
2018-01-21T14:30:21.718Z,19.92
2018-01-21T14:32:49.188Z,15.90
2018-01-21T14:35:17.410Z,16.02
2018-01-21T14:37:44.927Z,16.95
2018-01-21T14:40:12.462Z,19.10
2018-01-21T14:42:40.020Z,18.30
2018-01-21T14:45:08.987Z,17.98
2018-01-21T14:47:36.468Z,18.60
2018-01-21T14:50:03.935Z,18.42
2018-01-21T14:52:32.177Z,17.15
2018-01-21T14:54:59.647Z,17.75
2018-01-21T14:57:27.899Z,17.40
2018-01-21T14:59:55.391Z,20.33
2018-01-21T15:02:23.608Z,18.80
2018-01-21T15:04:51.086Z,18.50
2018-01-21T15:07:18.557Z,16.90
2018-01-21T15:09:46.082Z,17.42
2018-01-21T15:12:13.642Z,18.02
2018-01-21T15:14:41.104Z,16.77
2018-01-21T15:17:08.628Z,18.20
2018-01-21T15:19:36.987Z,17.77
2018-01-21T15:22:04.544Z,17.30
2018-01-21T15:24:32.016Z,19.23
2018-01-21T15:27:00.253Z,18.15
2018-01-21T15:29:27.738Z,19.50
2018-01-21T15:31:55.212Z,17.25
2018-01-21T15:34:23.457Z,19.62
2018-01-21T15:36:51.541Z,17.35
2018-01-21T15:39:19.011Z,16.83
2018-01-21T15:41:47.249Z,17.02
2018-01-21T15:44:14.717Z,17.27
2018-01-21T15:46:42.954Z,16.80
2018-01-21T15:49:10.504Z,16.95
2018-01-21T15:51:38.390Z,18.98
2018-01-21T15:54:05.860Z,22.20
2018-01-21T15:56:33.327Z,16.98
2018-01-21T15:59:00.798Z,19.83
2018-01-21T16:01:28.359Z,18.90
2018-01-21T16:03:55.822Z,18.20
2018-01-21T16:06:24.067Z,17.80
2018-01-21T16:08:51.532Z,18.25
2018-01-21T16:11:19.328Z,18.33
2018-01-21T16:13:48.049Z,15.70
2018-01-21T16:16:15.559Z,16.80
2018-01-21T16:18:43.794Z,15.63
2018-01-21T16:21:11.305Z,16.80
2018-01-21T16:23:39.561Z,16.25
2018-01-21T16:26:07.042Z,17.58
2018-01-21T16:28:35.294Z,16.25
2018-01-21T16:31:02.753Z,16.05
2018-01-21T16:33:31.010Z,17.17
2018-01-21T16:35:58.589Z,17.05
2018-01-21T16:38:38.784Z,16.58
2018-01-21T16:41:06.249Z,18.17
2018-01-21T16:43:33.732Z,16.30
2018-01-21T16:46:01.187Z,15.25
2018-01-21T16:48:28.751Z,16.35
2018-01-21T16:50:56.207Z,16.55
2018-01-21T16:53:23.767Z,15.82
2018-01-21T16:55:51.240Z,19.90
2018-01-21T16:58:19.470Z,16.10
2018-01-21T17:00:46.960Z,17.95
2018-01-21T17:03:14.525Z,15.82
2018-01-21T17:05:41.988Z,15.90
2018-01-21T17:08:09.541Z,18.33
2018-01-21T17:10:37.124Z,16.98
2018-01-21T17:13:04.645Z,17.75
2018-01-21T17:15:32.152Z,17.10
2018-01-21T17:17:59.613Z,18.65
2018-01-21T17:20:27.183Z,17.73
2018-01-21T17:22:54.640Z,19.87
2018-01-21T17:25:22.108Z,18.52
2018-01-21T17:27:49.630Z,20.45
2018-01-21T17:30:17.900Z,16.73
2018-01-21T17:32:46.177Z,15.80
2018-01-21T17:35:14.449Z,18.05
2018-01-21T17:37:42.683Z,17.92
2018-01-21T17:40:10.140Z,18.62
2018-01-21T17:42:37.613Z,16.92
2018-01-21T17:45:05.450Z,17.12
2018-01-21T17:47:34.167Z,17.83
2018-01-21T17:50:01.719Z,17.23
2018-01-21T17:52:29.748Z,17.42
2018-01-21T17:54:57.264Z,19.30
2018-01-21T17:57:25.517Z,21.92
2018-01-21T17:59:53.215Z,17.67
2018-01-21T18:02:21.462Z,16.75
2018-01-21T18:04:48.942Z,17.45
2018-01-21T18:07:17.192Z,19.15
2018-01-21T18:09:44.755Z,18.87
2018-01-21T18:12:13.740Z,18.90
2018-01-21T18:14:41.320Z,17.30
2018-01-21T18:17:08.783Z,17.52
2018-01-21T18:19:37.022Z,18.87
2018-01-21T18:22:04.550Z,17.70
2018-01-21T18:24:32.021Z,18.17
2018-01-21T18:26:59.499Z,19.87
2018-01-21T18:29:27.066Z,18.58
2018-01-21T18:31:54.524Z,19.35
2018-01-21T18:34:22.767Z,17.67
2018-01-21T18:36:50.244Z,18.17
2018-01-21T18:39:17.704Z,18.62
2018-01-21T18:41:45.162Z,18.17
2018-01-21T18:44:12.615Z,17.37
2018-01-21T18:46:40.184Z,18.90
2018-01-21T18:49:07.743Z,18.25
2018-01-21T18:51:35.301Z,17.67
2018-01-21T18:54:02.861Z,17.70
2018-01-21T18:56:30.324Z,19.50
2018-01-21T18:58:57.871Z,18.05
2018-01-21T19:01:25.435Z,18.48
2018-01-21T19:03:52.987Z,20.25
2018-01-21T19:06:20.506Z,19.75
2018-01-21T19:08:47.961Z,17.30
2018-01-21T19:11:15.466Z,17.05
2018-01-21T19:13:42.975Z,17.30
2018-01-21T19:16:10.441Z,18.02
2018-01-21T19:18:37.900Z,19.23
2018-01-21T19:21:05.367Z,17.08
2018-01-21T19:23:32.836Z,17.58
2018-01-21T19:26:00.304Z,21.58
2018-01-21T19:28:27.863Z,15.68
2018-01-21T19:30:56.151Z,15.82
2018-01-21T19:33:23.623Z,15.65
2018-01-21T19:35:51.878Z,14.25
2018-01-21T19:38:25.150Z,15.57
2018-01-21T19:40:53.415Z,14.82
2018-01-21T19:43:26.512Z,15.20
2018-01-21T19:45:53.976Z,13.15
2018-01-21T19:48:21.498Z,14.68
2018-01-21T19:50:50.183Z,15.30
2018-01-21T19:53:17.726Z,16.12
2018-01-21T19:55:45.950Z,16.30
2018-01-21T19:58:13.431Z,15.85
2018-01-21T20:00:40.910Z,16.33
2018-01-21T20:03:09.148Z,14.27
2018-01-21T20:05:36.724Z,12.80
2018-01-21T20:08:04.191Z,13.23
2018-01-21T20:10:32.436Z,14.38
2018-01-21T20:13:17.118Z,14.95
2018-01-21T20:15:44.818Z,13.98
2018-01-21T20:18:12.328Z,14.57
2018-01-21T20:20:39.792Z,14.75
2018-01-21T20:23:08.025Z,13.00
2018-01-21T20:25:35.512Z,12.75
2018-01-21T20:28:02.973Z,15.38
2018-01-21T20:30:30.449Z,14.20
2018-01-21T20:32:58.700Z,14.05
2018-01-21T20:35:26.177Z,15.90
2018-01-21T20:37:54.449Z,14.87
2018-01-21T20:40:22.683Z,14.10
2018-01-21T20:42:50.225Z,14.52
2018-01-21T20:45:17.696Z,16.05
2018-01-21T20:47:45.163Z,13.18
2018-01-21T20:50:12.632Z,14.20
2018-01-21T20:52:46.415Z,14.80
2018-01-21T20:55:13.956Z,13.98
2018-01-21T20:57:41.427Z,14.43
2018-01-21T21:00:08.908Z,16.27
2018-01-21T21:02:36.395Z,14.63
2018-01-21T21:05:04.624Z,14.70
2018-01-21T21:07:32.106Z,14.02
2018-01-21T21:10:00.330Z,11.85
2018-01-21T21:12:28.299Z,15.25
2018-01-21T21:14:59.807Z,13.62
2018-01-21T21:17:27.826Z,12.25
2018-01-21T21:19:56.708Z,13.70
2018-01-21T21:22:24.684Z,14.20
2018-01-21T21:24:52.754Z,14.43
2018-01-21T21:27:20.620Z,11.60
2018-01-21T21:29:49.504Z,10.65
2018-01-21T21:32:17.475Z,12.43
2018-01-21T21:34:45.542Z,14.35
2018-01-21T21:37:13.364Z,13.43
2018-01-21T21:39:41.266Z,13.98
2018-01-21T21:42:09.243Z,14.30
2018-01-21T21:44:37.213Z,12.57
2018-01-21T21:47:05.904Z,13.50
2018-01-21T21:49:34.581Z,12.90
2018-01-21T21:52:02.550Z,12.93
2018-01-21T21:54:30.528Z,12.55
2018-01-21T21:56:58.487Z,13.52
2018-01-21T21:59:26.660Z,13.00
2018-01-21T22:01:55.301Z,12.52
2018-01-21T22:04:24.234Z,11.52
2018-01-21T22:06:52.203Z,11.20
2018-01-21T22:09:20.068Z,11.80
2018-01-21T22:11:47.934Z,12.50
2018-01-21T22:14:15.406Z,12.05
2018-01-21T22:16:42.925Z,12.60
2018-01-21T22:19:11.141Z,13.85
2018-01-21T22:21:38.631Z,11.93
2018-01-21T22:24:06.194Z,13.15
2018-01-21T22:26:33.751Z,13.07
2018-01-21T22:29:01.315Z,12.98
2018-01-21T22:31:28.873Z,14.18
2018-01-21T22:33:56.338Z,13.35
2018-01-21T22:36:24.604Z,13.62
2018-01-21T22:38:52.067Z,12.40
2018-01-21T22:41:20.296Z,11.45
2018-01-21T22:43:47.756Z,11.63
2018-01-21T22:46:15.219Z,13.23
2018-01-21T22:48:42.688Z,13.25
2018-01-21T22:51:10.168Z,11.75
2018-01-21T22:53:38.398Z,11.43
2018-01-21T22:56:05.939Z,12.13
2018-01-21T22:58:33.405Z,14.07
2018-01-21T23:01:01.153Z,13.00
2018-01-21T23:03:28.624Z,12.32
2018-01-21T23:05:56.085Z,12.18
2018-01-21T23:08:23.588Z,11.82
2018-01-21T23:10:51.064Z,11.40
2018-01-21T23:13:18.532Z,13.30
2018-01-21T23:15:46.013Z,12.30
2018-01-21T23:18:13.511Z,12.55
2018-01-21T23:20:52.803Z,13.77
2018-01-21T23:23:20.285Z,12.95
2018-01-21T23:25:47.759Z,13.45
2018-01-21T23:28:15.250Z,13.60
2018-01-21T23:30:42.779Z,15.25
2018-01-21T23:33:11.008Z,12.43
2018-01-21T23:35:38.496Z,13.70
2018-01-21T23:38:06.067Z,14.80
2018-01-21T23:40:33.532Z,13.55
2018-01-21T23:43:01.752Z,13.68
2018-01-21T23:45:29.242Z,14.43
2018-01-21T23:47:56.724Z,15.48
2018-01-21T23:50:24.957Z,12.95
2018-01-21T23:52:52.412Z,14.52
2018-01-21T23:55:19.871Z,14.38
2018-01-21T23:57:47.337Z,14.35
